Relevés horaires Chievres (Belgique)


Relevés horaires à Chievres - Mardi 03 Mai 2016
Heure UTC1 Température [°C] Vent [km/h] Hum. [%] Pres.4 [hPa] Visi. [Km] Nébu. [octa] Préc.5 [mm] Cond.
2m. Res. Ros. Dir.2 Vit. Moy. Raf.3
23:00 4.3 4.3 2.0 NNO 1.9 1.9 1.9 85 1029.4(0.8/3h) 20 -- -- --
22:00 6.3 6.3 2.6 NNO 1.9 1.9 1.9 77 1029.2(1.2/3h) 20 -- -- --
21:00 6.5 6.5 3.0 NNO 1.9 0.0 0.0 78 1028.7(1.2/3h) 20 -- -- --
20:00 8.3 8.3 2.2 NNO 1.9 3.7 5.6 65 1028.4(1.2/3h) 20 -- -- --
19:00 10.0 10.0 2.6 N 3.7 9.3 11.1 60 1027.7(1.0/3h) 20 -- -- --
18:00 12.3 11.8 0.5 N 7.4 0.0 0.0 44 1027.4(0.9/3h) 20 -- 0/0h
--
17:00 13.6 13 0.1 NNO 9.3 11.1 13.0 40 1027(0.7/3h) 20 -- -- --
16:00 14.3 14.2 -0.1 NO 7.4 9.3 16.7 37 1026.5(0.2/3h) 19 -- -- --
15:00 14.0 13.5 0.2 NO 9.3 0.0 0.0 39 1026.4(0.2/3h) 20 -- -- --
14:00 14.2 14 0.9 NO 7.4 9.3 13.0 40 1026.2(0.3/3h) 20 -- -- --
13:00 13.5 13.2 0.8 ONO 7.4 11.1 14.8 42 1026.2(0.6/3h) 19 -- -- --
12:00 12.7 12 1.3 NO 9.3 0.0 0.0 46 1026.2(0.9/3h) 20 -- 0/0h
--
11:00 12.5 12.1 2.9 NO 7.4 9.3 16.7 52 1025.9(1.2/3h) 20 -- -- --
10:00 11.3 10.3 2.7 NNO 9.3 11.1 14.8 55 1025.7(1.6/3h) 20 -- -- --
09:00 10.7 9.3 3.4 NO 11.1 0.0 0.0 61 1025.2(1.9/3h) 20 -- -- --
08:00 10.3 9.1 5.4 NNO 9.3 9.3 14.8 72 1024.7(2.3/3h) 20 -- -- --
07:00 9.3 7.9 6.3 NO 9.3 9.3 13.0 81 1024(2.2/3h) 20 -- -- --
06:00 8.3 7.6 6.7 ONO 5.6 0.0 0.0 90 1023.2(1.6/3h) 16 -- 0.8/12h
Ciel clair
05:00 6.6 6.6 5.8 ONO 3.7 3.7 5.6 95 1022.5(1.2/3h) 15 -- -- --
04:00 7.1 7.1 6.0 O 3.7 5.6 9.3 93 1021.8(1.1/3h) 14 -- -- --
03:00 7.9 7.2 6.7 O 5.6 0.0 0.0 92 1021.5(1.0/3h) 16 -- -- Ciel clair
02:00 8.8 8.2 7.0 O 5.6 13.0 14.8 88 1021.1(0.6/3h) 19 -- -- --
01:00 10.1 8.3 7.8 O 13.0 13.0 20.4 86 1020.6(-0.1/3h) 20 -- -- Ciel clair
00:00 11.1 9.8 10.3 OSO 11.1 0.0 0.0 95 1020.2(-0.6/3h) 4.2 -- 0.8/6h
Il y a de la pluie faible et continue à la station au moment de l'observation

1 Coordinated Universal Time. Actuellement il est 14:00 locale et 12:00 UTC.

2 Le vent souffle depuis la direction indiquée vers la direction oposée.

3 Les rafales max. sont disponible 40 min après l'heure du relevé.

4 Pour les stations d'altitude (plus de 600m) le géopotentiel du niveau le plus proche de la pression obligatoire est indiqué.

5 Les stations disposant d'un diffuseur peuvent indiquer "trace". Cela signifie que des précipitations ont touchés le sol mais que la quantité est inférieure à 0.1 mm.

Récapitulatif de la journée
Température [°C] Vent [km/h] Ensoleillement4 [h] Precipitations totale5 [mm] Pression [Hpa]
Min1 Max.2 Moy.3 Max. Min Max.
6.4 15.0 5.5 20.4 0 h 0 min 0 1020.2 1029.4

1 Température minimale relevée entre 18:00 UTC la veille et 18:00 UTC le jour donné.

2 Température maximale relevée entre 06:00 UTC le jour donné et 06:00 UTC le lendemain.

3 Vent moyen de la journée basé sur les relevés horaires.

4 Ensoleillement en heures relevé entre 06:00 UTC la veille et 06:00 UTC le jour donné.

5 Précipitations totales tombées entre 06:00 UTC la jour donné et 06:00 UTC le lendemain.

Graphiques horaires